createdAt,value
2018-12-14T00:02:11.805Z,-2.00
2018-12-14T00:04:39.296Z,-2.10
2018-12-14T00:07:06.813Z,-2.10
2018-12-14T00:09:34.312Z,-2.10
2018-12-14T00:12:01.870Z,-2.10
2018-12-14T00:14:29.357Z,-2.10
2018-12-14T00:16:56.857Z,-2.10
2018-12-14T00:19:24.303Z,-2.00
2018-12-14T00:21:51.813Z,-2.10
2018-12-14T00:24:19.303Z,-2.00
2018-12-14T00:26:46.782Z,-2.00
2018-12-14T00:29:14.254Z,-2.10
2018-12-14T00:31:41.719Z,-2.20
2018-12-14T00:34:09.208Z,-2.20
2018-12-14T00:36:36.706Z,-2.10
2018-12-14T00:39:05.197Z,-2.10
2018-12-14T00:41:32.676Z,-2.10
2018-12-14T00:44:00.158Z,-2.10
2018-12-14T00:46:27.661Z,-2.20
2018-12-14T00:48:55.105Z,-2.20
2018-12-14T00:51:22.553Z,-2.20
2018-12-14T00:53:50.015Z,-2.20
2018-12-14T00:56:17.867Z,-2.20
2018-12-14T00:58:45.349Z,-2.20
2018-12-14T01:01:12.813Z,-2.20
2018-12-14T01:03:40.319Z,-2.20
2018-12-14T01:06:07.806Z,-2.10
2018-12-14T01:08:35.274Z,-2.10
2018-12-14T01:11:02.752Z,-2.20
2018-12-14T01:13:30.246Z,-2.20
2018-12-14T01:15:57.841Z,-2.20
2018-12-14T01:18:25.299Z,-2.20
2018-12-14T01:20:52.793Z,-2.20
2018-12-14T01:23:20.267Z,-2.20
2018-12-14T01:25:47.733Z,-2.20
2018-12-14T01:28:15.230Z,-2.10
2018-12-14T01:30:42.699Z,-2.20
2018-12-14T01:33:10.179Z,-2.20
2018-12-14T01:35:37.667Z,-2.10
2018-12-14T01:38:05.146Z,-2.10
2018-12-14T01:40:32.601Z,-2.10
2018-12-14T01:43:00.189Z,-2.10
2018-12-14T01:45:27.669Z,-2.10
2018-12-14T01:47:55.153Z,-2.20
2018-12-14T01:50:22.637Z,-2.10
2018-12-14T01:52:50.249Z,-2.10
2018-12-14T01:55:17.948Z,-2.10
2018-12-14T01:57:45.418Z,-2.10
2018-12-14T02:00:12.933Z,-2.10
2018-12-14T02:02:40.389Z,-2.10
2018-12-14T02:05:07.886Z,-2.10
2018-12-14T02:07:35.356Z,-2.10
2018-12-14T02:10:03.072Z,-2.10
2018-12-14T02:12:30.548Z,-2.10
2018-12-14T02:14:58.036Z,-2.20
2018-12-14T02:17:25.503Z,-2.10
2018-12-14T02:19:53.017Z,-2.10
2018-12-14T02:22:20.522Z,-2.00
2018-12-14T02:24:48.042Z,-2.00
2018-12-14T02:27:15.542Z,-2.10
2018-12-14T02:29:43.012Z,-2.10
2018-12-14T02:32:10.681Z,-2.10
2018-12-14T02:34:38.365Z,-2.10
2018-12-14T02:37:05.851Z,-2.20
2018-12-14T02:39:33.324Z,-2.10
2018-12-14T02:42:00.817Z,-2.10
2018-12-14T02:44:28.310Z,-2.10
2018-12-14T02:46:55.811Z,-2.10
2018-12-14T02:49:23.342Z,-2.10
2018-12-14T02:51:50.808Z,-2.10
2018-12-14T02:54:18.273Z,-2.10
2018-12-14T02:56:45.718Z,-2.10
2018-12-14T02:59:13.288Z,-2.10
2018-12-14T03:01:40.796Z,-2.10
2018-12-14T03:04:08.271Z,-2.10
2018-12-14T03:06:35.747Z,-2.10
2018-12-14T03:09:05.162Z,-2.10
2018-12-14T03:11:32.632Z,-2.10
2018-12-14T03:14:00.100Z,-2.10
2018-12-14T03:16:28.455Z,-2.10
2018-12-14T03:18:56.049Z,-2.10
2018-12-14T03:21:23.537Z,-2.10
2018-12-14T03:23:51.097Z,-2.10
2018-12-14T03:26:18.572Z,-2.10
2018-12-14T03:28:46.623Z,-2.10
2018-12-14T03:31:14.101Z,-2.10
2018-12-14T03:33:41.580Z,-2.10
2018-12-14T03:36:09.054Z,-2.10
2018-12-14T03:38:36.531Z,-2.20
2018-12-14T03:41:04.041Z,-2.20
2018-12-14T03:43:31.735Z,-2.20
2018-12-14T03:45:59.214Z,-2.20
2018-12-14T03:48:26.682Z,-2.20
2018-12-14T03:50:54.208Z,-2.20
2018-12-14T03:53:21.673Z,-2.20
2018-12-14T03:55:49.153Z,-2.20
2018-12-14T03:58:16.630Z,-2.20
2018-12-14T04:00:44.243Z,-2.20
2018-12-14T04:03:11.725Z,-2.20
2018-12-14T04:05:39.427Z,-2.20
2018-12-14T04:08:06.939Z,-2.20
2018-12-14T04:10:34.425Z,-2.20
2018-12-14T04:13:01.868Z,-2.30
2018-12-14T04:15:29.401Z,-2.30
2018-12-14T04:17:56.893Z,-2.20
2018-12-14T04:20:24.405Z,-2.30
2018-12-14T04:22:51.889Z,-2.30
2018-12-14T04:25:19.376Z,-2.40
2018-12-14T04:27:46.854Z,-2.30
2018-12-14T04:30:14.347Z,-2.30
2018-12-14T04:32:41.823Z,-2.30
2018-12-14T04:35:09.285Z,-2.30
2018-12-14T04:37:36.756Z,-2.30
2018-12-14T04:40:06.569Z,-2.30
2018-12-14T04:42:34.294Z,-2.30
2018-12-14T04:45:01.852Z,-2.30
2018-12-14T04:47:29.426Z,-2.30
2018-12-14T04:49:56.896Z,-2.30
2018-12-14T04:52:24.397Z,-2.30
2018-12-14T04:54:51.948Z,-2.30
2018-12-14T04:57:19.398Z,-2.30
2018-12-14T04:59:46.855Z,-2.20
2018-12-14T05:02:14.358Z,-2.30
2018-12-14T05:04:41.829Z,-2.30
2018-12-14T05:07:09.315Z,-2.40
2018-12-14T05:09:36.869Z,-2.40
2018-12-14T05:12:04.435Z,-2.30
2018-12-14T05:14:31.899Z,-2.30
2018-12-14T05:16:59.372Z,-2.30
2018-12-14T05:19:26.859Z,-2.30
2018-12-14T05:21:54.574Z,-2.40
2018-12-14T05:24:22.047Z,-2.30
2018-12-14T05:26:49.608Z,-2.30
2018-12-14T05:29:17.157Z,-2.30
2018-12-14T05:31:44.621Z,-2.30
2018-12-14T05:34:12.129Z,-2.30
2018-12-14T05:36:39.580Z,-2.30
2018-12-14T05:39:07.069Z,-2.30
2018-12-14T05:41:34.508Z,-2.30
2018-12-14T05:44:02.102Z,-2.30
2018-12-14T05:46:29.557Z,-2.40
2018-12-14T05:48:57.017Z,-2.30
2018-12-14T05:51:24.483Z,-2.40
2018-12-14T05:53:51.935Z,-2.40
2018-12-14T05:56:19.400Z,-2.40
2018-12-14T05:58:46.854Z,-2.40
2018-12-14T06:01:14.334Z,-2.40
2018-12-14T06:03:41.815Z,-2.40
2018-12-14T06:06:09.507Z,-2.40
2018-12-14T06:08:36.958Z,-2.40
2018-12-14T06:11:04.449Z,-2.30
2018-12-14T06:13:31.954Z,-2.30
2018-12-14T06:15:59.424Z,-2.30
2018-12-14T06:18:26.905Z,-2.30
2018-12-14T06:20:54.356Z,-2.30
2018-12-14T06:23:21.811Z,-2.30
2018-12-14T06:25:49.290Z,-2.30
2018-12-14T06:28:16.769Z,-2.40
2018-12-14T06:33:18.051Z,-2.30
2018-12-14T06:35:45.534Z,-2.40
2018-12-14T06:38:13.001Z,-2.40
2018-12-14T06:40:45.497Z,-2.40
2018-12-14T06:43:15.622Z,-2.40
2018-12-14T06:45:42.478Z,-2.40
2018-12-14T06:48:09.930Z,-2.30
2018-12-14T06:50:37.511Z,-2.40
2018-12-14T06:53:05.219Z,-2.40
2018-12-14T06:55:32.682Z,-2.50
2018-12-14T06:58:00.158Z,-2.40
2018-12-14T07:00:27.717Z,-2.40
2018-12-14T07:02:55.168Z,-2.40
2018-12-14T07:05:22.654Z,-2.40
2018-12-14T07:07:50.134Z,-2.40
2018-12-14T07:10:17.606Z,-2.40
2018-12-14T07:12:45.075Z,-2.50
2018-12-14T07:15:12.549Z,-2.50
2018-12-14T07:17:40.030Z,-2.50
2018-12-14T07:20:07.527Z,-2.50
2018-12-14T07:22:35.013Z,-2.50
2018-12-14T07:25:02.496Z,-2.50
2018-12-14T07:27:29.964Z,-2.40
2018-12-14T07:29:57.509Z,-2.40
2018-12-14T07:32:24.980Z,-2.40
2018-12-14T07:34:52.452Z,-2.40
2018-12-14T07:37:19.910Z,-2.50
2018-12-14T07:39:47.396Z,-2.40
2018-12-14T07:42:15.778Z,-2.40
2018-12-14T07:44:43.338Z,-2.50
2018-12-14T07:47:11.836Z,-2.40
2018-12-14T07:49:39.365Z,-2.40
2018-12-14T07:52:07.065Z,-2.40
2018-12-14T07:54:34.526Z,-2.40
2018-12-14T07:57:01.988Z,-2.30
2018-12-14T07:59:29.715Z,-2.30
2018-12-14T08:01:57.188Z,-2.30
2018-12-14T08:04:24.780Z,-2.40
2018-12-14T08:06:52.357Z,-2.40
2018-12-14T08:09:19.854Z,-2.40
2018-12-14T08:11:47.313Z,-2.40
2018-12-14T08:14:14.776Z,-2.40
2018-12-14T08:16:42.291Z,-2.40
2018-12-14T08:19:09.800Z,-2.40
2018-12-14T08:21:37.302Z,-2.40
2018-12-14T08:24:04.795Z,-2.40
2018-12-14T08:26:32.309Z,-2.30
2018-12-14T08:28:59.761Z,-2.30
2018-12-14T08:31:27.198Z,-2.40
2018-12-14T08:33:54.679Z,-2.30
2018-12-14T08:36:22.149Z,-2.30
2018-12-14T08:38:49.624Z,-2.30
2018-12-14T08:41:17.117Z,-2.30
2018-12-14T08:43:44.574Z,-2.40
2018-12-14T08:46:12.054Z,-2.40
2018-12-14T08:48:39.526Z,-2.40
2018-12-14T08:51:07.016Z,-2.30
2018-12-14T08:53:34.609Z,-2.30
2018-12-14T08:56:02.091Z,-2.30
2018-12-14T08:58:29.560Z,-2.30
2018-12-14T09:00:57.034Z,-2.30
2018-12-14T09:03:24.511Z,-2.30
2018-12-14T09:05:51.976Z,-2.30
2018-12-14T09:08:19.434Z,-2.30
2018-12-14T09:10:46.916Z,-2.30
2018-12-14T09:13:14.426Z,-2.30
2018-12-14T09:15:41.896Z,-2.20
2018-12-14T09:18:09.368Z,-2.20
2018-12-14T09:20:36.861Z,-2.20
2018-12-14T09:23:04.346Z,-2.20
2018-12-14T09:25:31.821Z,-2.20
2018-12-14T09:27:59.285Z,-2.20
2018-12-14T09:30:26.762Z,-2.20
2018-12-14T09:32:54.221Z,-2.10
2018-12-14T09:35:21.718Z,-2.10
2018-12-14T09:37:49.209Z,-2.10
2018-12-14T09:40:16.702Z,-2.10
2018-12-14T09:42:44.372Z,-2.10
2018-12-14T09:45:11.857Z,-2.10
2018-12-14T09:47:39.338Z,-2.10
2018-12-14T09:50:06.854Z,-2.10
2018-12-14T09:52:34.345Z,-2.00
2018-12-14T09:55:01.812Z,-2.00
2018-12-14T09:57:29.271Z,-2.10
2018-12-14T09:59:56.751Z,-2.10
2018-12-14T10:02:24.223Z,-2.10
2018-12-14T10:04:51.677Z,-2.10
2018-12-14T10:07:19.138Z,-2.00
2018-12-14T10:09:46.594Z,-2.00
2018-12-14T10:12:14.082Z,-1.90
2018-12-14T10:14:41.579Z,-1.90
2018-12-14T10:17:09.070Z,-1.90
2018-12-14T10:19:36.541Z,-1.90
2018-12-14T10:22:04.038Z,-1.90
2018-12-14T10:24:31.544Z,-1.80
2018-12-14T10:26:59.062Z,-1.80
2018-12-14T10:29:26.531Z,-1.80
2018-12-14T10:31:54.003Z,-1.80
2018-12-14T10:34:21.789Z,-1.80
2018-12-14T10:36:49.257Z,-1.80
2018-12-14T10:39:16.732Z,-1.80
2018-12-14T10:41:44.235Z,-1.80
2018-12-14T10:44:11.693Z,-1.70
2018-12-14T10:46:39.202Z,-1.80
2018-12-14T10:49:06.682Z,-1.70
2018-12-14T10:51:34.272Z,-1.70
2018-12-14T10:54:01.752Z,-1.70
2018-12-14T10:56:29.321Z,-1.60
2018-12-14T10:58:56.784Z,-1.60
2018-12-14T11:01:29.788Z,-1.60
2018-12-14T11:03:57.286Z,-1.60
2018-12-14T11:06:24.789Z,-1.60
2018-12-14T11:08:52.281Z,-1.70
2018-12-14T11:11:19.845Z,-1.70
2018-12-14T11:13:47.354Z,-1.70
2018-12-14T11:16:14.811Z,-1.60
2018-12-14T11:18:42.281Z,-1.50
2018-12-14T11:21:09.747Z,-1.50
2018-12-14T11:23:37.223Z,-1.50
2018-12-14T11:26:04.707Z,-1.50
2018-12-14T11:28:32.187Z,-1.40
2018-12-14T11:30:59.657Z,-1.40
2018-12-14T11:33:27.119Z,-1.40
2018-12-14T11:35:54.598Z,-1.50
2018-12-14T11:38:22.090Z,-1.50
2018-12-14T11:40:49.555Z,-1.50
2018-12-14T11:43:17.076Z,-1.60
2018-12-14T11:45:44.557Z,-1.60
2018-12-14T11:48:12.043Z,-1.60
2018-12-14T11:50:39.545Z,-1.60
2018-12-14T11:53:07.018Z,-1.60
2018-12-14T11:55:34.510Z,-1.60
2018-12-14T11:58:01.960Z,-1.50
2018-12-14T12:00:29.673Z,-1.50
2018-12-14T12:02:57.155Z,-1.50
2018-12-14T12:05:24.661Z,-1.50
2018-12-14T12:07:52.310Z,-1.50
2018-12-14T12:10:19.796Z,-1.50
2018-12-14T12:12:47.278Z,-1.50
2018-12-14T12:15:14.780Z,-1.50
2018-12-14T12:17:42.369Z,-1.50
2018-12-14T12:20:09.898Z,-1.50
2018-12-14T12:22:37.354Z,-1.40
2018-12-14T12:25:04.858Z,-1.40
2018-12-14T12:27:32.312Z,-1.50
2018-12-14T12:29:59.791Z,-1.50
2018-12-14T12:32:27.265Z,-1.50
2018-12-14T12:34:54.772Z,-1.50
2018-12-14T12:37:22.477Z,-1.50
2018-12-14T12:39:49.951Z,-1.60
2018-12-14T12:42:17.415Z,-1.60
2018-12-14T12:44:44.894Z,-1.70
2018-12-14T12:47:12.382Z,-1.70
2018-12-14T12:49:39.858Z,-1.80
2018-12-14T12:52:07.331Z,-1.70
2018-12-14T12:54:34.790Z,-1.70
2018-12-14T12:57:02.260Z,-1.70
2018-12-14T12:59:29.884Z,-1.70
2018-12-14T13:01:57.659Z,-1.70
2018-12-14T13:04:25.126Z,-1.80
2018-12-14T13:06:52.625Z,-1.90
2018-12-14T13:09:20.119Z,-1.90
2018-12-14T13:11:47.571Z,-2.00
2018-12-14T13:14:15.067Z,-2.00
2018-12-14T13:16:42.516Z,-2.00
2018-12-14T13:19:09.992Z,-2.00
2018-12-14T13:21:37.502Z,-2.00
2018-12-14T13:24:04.996Z,-2.00
2018-12-14T13:26:32.490Z,-2.00
2018-12-14T13:28:59.999Z,-2.00
2018-12-14T13:31:27.493Z,-2.10
2018-12-14T13:33:54.992Z,-2.00
2018-12-14T13:36:22.471Z,-2.00
2018-12-14T13:38:49.942Z,-2.00
2018-12-14T13:41:17.424Z,-1.90
2018-12-14T13:43:44.890Z,-2.00
2018-12-14T13:46:12.393Z,-2.00
2018-12-14T13:48:39.912Z,-2.00
2018-12-14T13:51:07.389Z,-2.10
2018-12-14T13:53:34.891Z,-2.10
2018-12-14T13:56:02.386Z,-2.00
2018-12-14T13:58:29.844Z,-2.10
2018-12-14T14:00:57.366Z,-2.10
2018-12-14T14:03:24.811Z,-2.10
2018-12-14T14:05:52.296Z,-2.20
2018-12-14T14:08:19.777Z,-2.10
2018-12-14T14:10:47.293Z,-2.20
2018-12-14T14:13:14.999Z,-2.20
2018-12-14T14:15:42.480Z,-2.20
2018-12-14T14:18:09.931Z,-2.30
2018-12-14T14:20:37.418Z,-2.40
2018-12-14T14:23:04.892Z,-2.40
2018-12-14T14:25:32.376Z,-2.40
2018-12-14T14:27:59.834Z,-2.40
2018-12-14T14:30:27.340Z,-2.40
2018-12-14T14:32:54.833Z,-2.40
2018-12-14T14:35:22.366Z,-2.40
2018-12-14T14:37:49.904Z,-2.40
2018-12-14T14:40:17.386Z,-2.40
2018-12-14T14:42:44.878Z,-2.50
2018-12-14T14:45:12.359Z,-2.50
2018-12-14T14:47:39.833Z,-2.50
2018-12-14T14:50:08.030Z,-2.50
2018-12-14T14:52:35.501Z,-2.50
2018-12-14T14:55:03.431Z,-2.60
2018-12-14T14:57:31.310Z,-2.60
2018-12-14T14:59:58.796Z,-2.60
2018-12-14T15:02:26.277Z,-2.60
2018-12-14T15:04:53.730Z,-2.70
2018-12-14T15:07:21.189Z,-2.60
2018-12-14T15:09:48.684Z,-2.60
2018-12-14T15:12:16.140Z,-2.60
2018-12-14T15:14:44.744Z,-2.60
2018-12-14T15:17:12.341Z,-2.60
2018-12-14T15:19:39.857Z,-2.60
2018-12-14T15:22:07.371Z,-2.70
2018-12-14T15:24:34.829Z,-2.70
2018-12-14T15:27:02.371Z,-2.70
2018-12-14T15:29:29.850Z,-2.70
2018-12-14T15:31:57.562Z,-2.70
2018-12-14T15:34:25.071Z,-2.60
2018-12-14T15:36:52.555Z,-2.60
2018-12-14T15:39:20.066Z,-2.60
2018-12-14T15:41:47.689Z,-2.60
2018-12-14T15:44:15.248Z,-2.60
2018-12-14T15:46:42.881Z,-2.60
2018-12-14T15:49:10.536Z,-2.70
2018-12-14T15:51:38.212Z,-2.70
2018-12-14T15:54:05.794Z,-2.60
2018-12-14T15:56:34.107Z,-2.60
2018-12-14T15:59:01.884Z,-2.60
2018-12-14T16:01:29.601Z,-2.70
2018-12-14T16:03:57.269Z,-2.70
2018-12-14T16:06:24.820Z,-2.70
2018-12-14T16:08:52.503Z,-2.70
2018-12-14T16:11:21.468Z,-2.70
2018-12-14T16:13:50.066Z,-2.70
2018-12-14T16:16:17.682Z,-2.70
2018-12-14T16:18:45.281Z,-2.60
2018-12-14T16:21:12.904Z,-2.70
2018-12-14T16:23:40.366Z,-2.70
2018-12-14T16:26:07.829Z,-2.70
2018-12-14T16:28:35.300Z,-2.80
2018-12-14T16:31:02.769Z,-2.80
2018-12-14T16:33:30.233Z,-2.80
2018-12-14T16:35:57.823Z,-2.80
2018-12-14T16:38:25.292Z,-2.80
2018-12-14T16:40:52.731Z,-2.80
2018-12-14T16:43:20.186Z,-2.80
2018-12-14T16:45:47.669Z,-2.80
2018-12-14T16:48:15.147Z,-2.80
2018-12-14T16:50:42.643Z,-2.80
2018-12-14T16:53:10.140Z,-2.80
2018-12-14T16:55:37.598Z,-2.80
2018-12-14T16:58:05.065Z,-2.80
2018-12-14T17:00:32.558Z,-2.70
2018-12-14T17:03:00.014Z,-2.80
2018-12-14T17:05:27.511Z,-2.80
2018-12-14T17:07:54.963Z,-2.80
2018-12-14T17:10:22.451Z,-2.80
2018-12-14T17:12:51.163Z,-2.80
2018-12-14T17:15:18.724Z,-2.80
2018-12-14T17:17:46.203Z,-2.90
2018-12-14T17:20:13.685Z,-2.90
2018-12-14T17:22:41.210Z,-2.90
2018-12-14T17:25:08.746Z,-2.90
2018-12-14T17:27:36.230Z,-2.80
2018-12-14T17:30:04.365Z,-2.80
2018-12-14T17:32:31.868Z,-2.80
2018-12-14T17:34:59.334Z,-2.70
2018-12-14T17:37:26.844Z,-2.70
2018-12-14T17:39:54.345Z,-2.80
2018-12-14T17:42:22.718Z,-2.80
2018-12-14T17:44:50.282Z,-2.90
2018-12-14T17:47:17.844Z,-2.80
2018-12-14T17:49:45.348Z,-2.80
2018-12-14T17:52:13.727Z,-2.80
2018-12-14T17:54:41.198Z,-2.80
2018-12-14T17:57:09.024Z,-2.70
2018-12-14T17:59:36.523Z,-2.80
2018-12-14T18:02:04.025Z,-2.80
2018-12-14T18:04:31.569Z,-2.80
2018-12-14T18:06:59.056Z,-2.80
2018-12-14T18:09:26.639Z,-2.80
2018-12-14T18:11:54.188Z,-2.80
2018-12-14T18:14:21.669Z,-2.80
2018-12-14T18:16:49.113Z,-2.80
2018-12-14T18:19:16.574Z,-2.80
2018-12-14T18:21:44.086Z,-2.80
2018-12-14T18:24:11.564Z,-2.80
2018-12-14T18:26:39.016Z,-2.80
2018-12-14T18:29:06.518Z,-2.80
2018-12-14T18:31:33.978Z,-2.70
2018-12-14T18:34:01.437Z,-2.70
2018-12-14T18:36:28.906Z,-2.80
2018-12-14T18:38:56.357Z,-2.70
2018-12-14T18:41:23.806Z,-2.80
2018-12-14T18:43:51.447Z,-2.70
2018-12-14T18:46:19.769Z,-2.70
2018-12-14T18:48:47.319Z,-2.70
2018-12-14T18:51:14.842Z,-2.70
2018-12-14T18:53:45.292Z,-2.80
2018-12-14T18:56:12.738Z,-2.80
2018-12-14T18:58:40.194Z,-2.80
2018-12-14T19:01:07.717Z,-2.80
2018-12-14T19:03:35.256Z,-2.80
2018-12-14T19:06:02.798Z,-2.80
2018-12-14T19:08:30.295Z,-2.80
2018-12-14T19:10:57.850Z,-2.80
2018-12-14T19:13:25.311Z,-2.70
2018-12-14T19:15:52.811Z,-2.80
2018-12-14T19:18:20.307Z,-2.80
2018-12-14T19:23:21.423Z,-2.80
2018-12-14T19:25:49.014Z,-2.90
2018-12-14T19:28:16.482Z,-2.80
2018-12-14T19:30:43.971Z,-2.80
2018-12-14T19:33:12.374Z,-2.80
2018-12-14T19:35:40.001Z,-2.80
2018-12-14T19:38:07.638Z,-2.80
2018-12-14T19:40:35.242Z,-2.70
2018-12-14T19:43:04.665Z,-2.80
2018-12-14T19:45:32.137Z,-2.70
2018-12-14T19:47:59.653Z,-2.80
2018-12-14T19:50:27.329Z,-2.80
2018-12-14T19:52:54.802Z,-2.70
2018-12-14T19:55:22.258Z,-2.80
2018-12-14T19:57:49.725Z,-2.80
2018-12-14T20:00:17.245Z,-2.80
2018-12-14T20:02:44.702Z,-2.80
2018-12-14T20:05:12.301Z,-2.80
2018-12-14T20:07:39.816Z,-2.80
2018-12-14T20:10:07.620Z,-2.80
2018-12-14T20:12:35.121Z,-2.80
2018-12-14T20:15:03.018Z,-2.70
2018-12-14T20:17:30.494Z,-2.80
2018-12-14T20:19:57.988Z,-2.80
2018-12-14T20:22:25.440Z,-2.90
2018-12-14T20:24:52.982Z,-2.90
2018-12-14T20:27:20.703Z,-2.80
2018-12-14T20:29:48.209Z,-2.80
2018-12-14T20:32:15.785Z,-2.80
2018-12-14T20:34:43.241Z,-2.90
2018-12-14T20:37:10.805Z,-2.80
2018-12-14T20:39:38.349Z,-2.80
2018-12-14T20:42:05.820Z,-2.80
2018-12-14T20:44:33.329Z,-2.90
2018-12-14T20:47:02.544Z,-2.90
2018-12-14T20:49:30.053Z,-2.90
2018-12-14T20:51:57.518Z,-2.90
2018-12-14T20:54:25.066Z,-3.00
2018-12-14T20:56:53.431Z,-3.00
2018-12-14T20:59:20.890Z,-3.00
2018-12-14T21:01:48.353Z,-3.00
2018-12-14T21:04:15.934Z,-3.00
2018-12-14T21:06:43.391Z,-3.00
2018-12-14T21:09:10.856Z,-3.00
2018-12-14T21:11:38.507Z,-3.00
2018-12-14T21:14:06.123Z,-2.90
2018-12-14T21:16:33.667Z,-3.00
2018-12-14T21:19:01.213Z,-3.00
2018-12-14T21:21:28.676Z,-3.10
2018-12-14T21:23:56.193Z,-3.00
2018-12-14T21:26:23.704Z,-3.00
2018-12-14T21:28:51.223Z,-3.00
2018-12-14T21:31:18.686Z,-3.00
2018-12-14T21:33:46.208Z,-3.00
2018-12-14T21:36:13.688Z,-3.00
2018-12-14T21:38:41.155Z,-3.10
2018-12-14T21:41:08.614Z,-3.00
2018-12-14T21:43:36.102Z,-3.10
2018-12-14T21:46:03.756Z,-3.10
2018-12-14T21:48:31.319Z,-3.10
2018-12-14T21:50:58.862Z,-3.10
2018-12-14T21:53:26.363Z,-3.10
2018-12-14T21:55:53.975Z,-3.10
2018-12-14T21:58:21.452Z,-3.00
2018-12-14T22:00:48.943Z,-3.10
2018-12-14T22:03:16.440Z,-3.10
2018-12-14T22:05:43.925Z,-3.10
2018-12-14T22:08:11.377Z,-3.20
2018-12-14T22:10:38.991Z,-3.10
2018-12-14T22:13:06.532Z,-3.10
2018-12-14T22:15:34.076Z,-3.10
2018-12-14T22:18:01.600Z,-3.10
2018-12-14T22:20:29.170Z,-3.00
2018-12-14T22:22:56.653Z,-3.10
2018-12-14T22:25:24.110Z,-3.10
2018-12-14T22:27:52.219Z,-3.20
2018-12-14T22:30:19.841Z,-3.10
2018-12-14T22:32:47.325Z,-3.10
2018-12-14T22:35:14.968Z,-3.20
2018-12-14T22:37:42.499Z,-3.20
2018-12-14T22:40:10.159Z,-3.10
2018-12-14T22:42:37.671Z,-3.10
2018-12-14T22:45:05.598Z,-3.10
2018-12-14T22:47:33.077Z,-3.20
2018-12-14T22:50:00.550Z,-3.20
2018-12-14T22:52:28.046Z,-3.20
2018-12-14T22:54:55.531Z,-3.10
2018-12-14T22:57:23.098Z,-3.20
2018-12-14T22:59:50.656Z,-3.20
2018-12-14T23:02:18.675Z,-3.20
2018-12-14T23:04:46.137Z,-3.30
2018-12-14T23:07:13.590Z,-3.20
2018-12-14T23:09:41.086Z,-3.10
2018-12-14T23:12:08.654Z,-3.10
2018-12-14T23:14:36.135Z,-3.10
2018-12-14T23:17:03.633Z,-3.10
2018-12-14T23:19:31.094Z,-3.10
2018-12-14T23:21:58.561Z,-3.10
2018-12-14T23:24:26.044Z,-3.10
2018-12-14T23:26:53.525Z,-3.10
2018-12-14T23:29:21.101Z,-3.10
2018-12-14T23:31:48.634Z,-3.10
2018-12-14T23:34:16.255Z,-3.10
2018-12-14T23:36:43.841Z,-3.10
2018-12-14T23:39:11.374Z,-3.10
2018-12-14T23:41:38.829Z,-3.00
2018-12-14T23:44:06.304Z,-3.00
2018-12-14T23:46:33.779Z,-3.10
2018-12-14T23:49:01.308Z,-3.10
2018-12-14T23:51:28.846Z,-3.10
2018-12-14T23:53:56.299Z,-3.10
2018-12-14T23:56:23.898Z,-3.10
2018-12-14T23:58:51.446Z,-3.10
